createdAt,value
2018-09-10T00:01:22.527Z,8.97
2018-09-10T00:03:51.271Z,12.10
2018-09-10T00:06:19.981Z,9.50
2018-09-10T00:08:49.568Z,10.57
2018-09-10T00:11:19.473Z,10.60
2018-09-10T00:13:48.113Z,9.47
2018-09-10T00:16:16.720Z,9.53
2018-09-10T00:18:45.351Z,8.90
2018-09-10T00:21:13.974Z,11.40
2018-09-10T00:23:42.559Z,8.97
2018-09-10T00:26:11.193Z,9.60
2018-09-10T00:28:39.756Z,8.80
2018-09-10T00:31:08.293Z,9.30
2018-09-10T00:33:37.028Z,9.70
2018-09-10T00:36:05.687Z,8.97
2018-09-10T00:38:34.516Z,10.33
2018-09-10T00:41:03.393Z,11.60
2018-09-10T00:43:32.282Z,10.03
2018-09-10T00:46:01.519Z,9.90
2018-09-10T00:48:30.468Z,8.40
2018-09-10T00:50:59.707Z,8.90
2018-09-10T00:53:28.570Z,10.17
2018-09-10T00:55:57.744Z,9.20
2018-09-10T00:58:26.731Z,9.60
2018-09-10T01:00:55.784Z,9.30
2018-09-10T01:03:25.048Z,13.67
2018-09-10T01:05:53.747Z,8.93
2018-09-10T01:08:23.215Z,12.07
2018-09-10T01:10:52.314Z,11.07
2018-09-10T01:13:21.457Z,9.83
2018-09-10T01:15:50.514Z,9.50
2018-09-10T01:18:19.914Z,8.40
2018-09-10T01:20:49.110Z,9.80
2018-09-10T01:23:18.074Z,10.63
2018-09-10T01:25:47.356Z,8.73
2018-09-10T01:28:16.313Z,8.73
2018-09-10T01:30:45.061Z,10.47
2018-09-10T01:33:19.357Z,8.70
2018-09-10T01:35:48.512Z,8.50
2018-09-10T01:38:17.354Z,8.00
2018-09-10T01:40:46.149Z,10.43
2018-09-10T01:43:14.976Z,8.93
2018-09-10T01:45:43.666Z,8.43
2018-09-10T01:48:12.417Z,10.10
2018-09-10T01:50:41.386Z,8.07
2018-09-10T01:53:10.237Z,8.40
2018-09-10T01:55:38.872Z,10.10
2018-09-10T01:58:07.709Z,7.97
2018-09-10T02:00:36.435Z,8.43
2018-09-10T02:03:05.183Z,9.67
2018-09-10T02:05:33.868Z,8.47
2018-09-10T02:08:02.399Z,10.30
2018-09-10T02:10:31.702Z,8.30
2018-09-10T02:13:07.240Z,8.47
2018-09-10T02:15:41.598Z,10.80
2018-09-10T02:18:10.993Z,9.43
2018-09-10T02:20:40.303Z,10.63
2018-09-10T02:23:09.539Z,8.50
2018-09-10T02:25:38.338Z,8.03
2018-09-10T02:28:07.103Z,9.50
2018-09-10T02:30:35.828Z,8.13
2018-09-10T02:33:05.759Z,9.87
2018-09-10T02:35:34.902Z,9.83
2018-09-10T02:38:04.032Z,9.77
2018-09-10T02:40:32.731Z,9.30
2018-09-10T02:43:01.568Z,8.20
2018-09-10T02:45:30.176Z,11.17
2018-09-10T02:47:59.019Z,8.70
2018-09-10T02:50:27.822Z,7.93
2018-09-10T02:52:56.573Z,7.70
2018-09-10T02:55:25.295Z,7.87
2018-09-10T02:57:53.883Z,7.73
2018-09-10T03:00:24.792Z,7.80
2018-09-10T03:02:54.549Z,8.27
2018-09-10T03:05:23.269Z,8.17
2018-09-10T03:07:52.161Z,8.87
2018-09-10T03:10:22.035Z,8.80
2018-09-10T03:12:52.049Z,8.10
2018-09-10T03:15:21.325Z,7.90
2018-09-10T03:17:50.310Z,7.53
2018-09-10T03:20:18.980Z,9.77
2018-09-10T03:22:47.802Z,8.70
2018-09-10T03:25:16.436Z,9.57
2018-09-10T03:27:45.015Z,8.70
2018-09-10T03:30:13.810Z,8.17
2018-09-10T03:32:42.638Z,10.20
2018-09-10T03:35:11.448Z,8.97
2018-09-10T03:37:40.273Z,8.47
2018-09-10T03:40:09.052Z,7.43
2018-09-10T03:42:37.852Z,7.03
2018-09-10T03:45:06.716Z,8.10
2018-09-10T03:47:35.618Z,9.53
2018-09-10T03:50:04.591Z,8.87
2018-09-10T03:52:33.545Z,8.80
2018-09-10T03:55:02.395Z,8.83
2018-09-10T03:57:31.724Z,8.87
2018-09-10T04:00:00.816Z,9.40
2018-09-10T04:02:29.739Z,10.23
2018-09-10T04:04:58.621Z,9.20
2018-09-10T04:07:27.753Z,8.67
2018-09-10T04:09:56.553Z,7.80
2018-09-10T04:12:25.572Z,8.33
2018-09-10T04:14:54.733Z,7.73
2018-09-10T04:17:23.487Z,8.90
2018-09-10T04:19:57.120Z,9.87
2018-09-10T04:22:26.029Z,10.00
2018-09-10T04:24:54.812Z,9.63
2018-09-10T04:27:23.652Z,13.30
2018-09-10T04:29:53.262Z,11.53
2018-09-10T04:32:22.547Z,17.13
2018-09-10T04:34:51.268Z,18.87
2018-09-10T04:37:20.007Z,22.37
2018-09-10T04:39:51.729Z,17.50
2018-09-10T04:42:20.231Z,22.47
2018-09-10T04:44:49.005Z,18.40
2018-09-10T04:47:17.641Z,15.60
2018-09-10T04:49:46.427Z,11.07
2018-09-10T04:52:15.161Z,11.37
2018-09-10T04:54:43.993Z,9.57
2018-09-10T04:57:12.953Z,9.30
2018-09-10T04:59:42.087Z,10.03
2018-09-10T05:02:11.293Z,9.50
2018-09-10T05:04:40.394Z,9.78
2018-09-10T05:07:09.546Z,8.63
2018-09-10T05:09:38.487Z,10.27
2018-09-10T05:12:07.368Z,12.37
2018-09-10T05:14:36.271Z,14.63
2018-09-10T05:17:05.463Z,10.50
2018-09-10T05:19:35.685Z,9.37
2018-09-10T05:22:05.688Z,10.30
2018-09-10T05:24:34.266Z,12.63
2018-09-10T05:27:03.166Z,10.37
2018-09-10T05:29:32.188Z,10.00
2018-09-10T05:32:01.147Z,13.33
2018-09-10T05:34:30.415Z,11.57
2018-09-10T05:40:19.949Z,13.13
2018-09-10T05:42:50.360Z,14.20
2018-09-10T05:45:19.329Z,14.27
2018-09-10T05:47:47.761Z,11.97
2018-09-10T05:50:16.350Z,11.13
2018-09-10T05:52:45.345Z,13.67
2018-09-10T05:55:14.540Z,15.23
2018-09-10T05:57:43.932Z,16.67
2018-09-10T06:00:13.095Z,14.57
2018-09-10T06:02:42.124Z,16.90
2018-09-10T06:05:10.967Z,14.13
2018-09-10T06:07:39.965Z,18.00
2018-09-10T06:10:09.231Z,14.97
2018-09-10T06:12:38.245Z,16.37
2018-09-10T06:15:07.359Z,18.20
2018-09-10T06:17:36.687Z,19.87
2018-09-10T06:20:05.975Z,16.37
2018-09-10T06:22:34.828Z,16.63
2018-09-10T06:25:03.928Z,13.97
2018-09-10T06:27:32.943Z,11.10
2018-09-10T06:30:02.014Z,11.40
2018-09-10T06:32:31.192Z,13.23
2018-09-10T06:35:00.801Z,13.17
2018-09-10T06:37:30.166Z,15.27
2018-09-10T06:39:59.343Z,18.00
2018-09-10T06:42:31.211Z,24.40
2018-09-10T06:45:00.178Z,24.13
2018-09-10T06:47:29.735Z,24.20
2018-09-10T06:49:58.820Z,24.37
2018-09-10T06:52:27.847Z,24.10
2018-09-10T06:54:56.769Z,23.43
2018-09-10T06:57:25.987Z,22.20
2018-09-10T06:59:55.197Z,24.77
2018-09-10T07:02:24.214Z,20.73
2018-09-10T07:04:53.259Z,19.60
2018-09-10T07:07:22.159Z,21.07
2018-09-10T07:09:51.525Z,19.00
2018-09-10T07:12:20.488Z,18.13
2018-09-10T07:14:49.764Z,16.50
2018-09-10T07:17:18.863Z,15.93
2018-09-10T07:19:48.017Z,14.80
2018-09-10T07:22:17.457Z,16.47
2018-09-10T07:24:46.501Z,11.57
2018-09-10T07:27:15.698Z,22.03
2018-09-10T07:29:44.999Z,20.13
2018-09-10T07:32:14.010Z,14.73
2018-09-10T07:34:43.294Z,16.80
2018-09-10T07:37:12.327Z,16.20
2018-09-10T07:39:41.484Z,12.83
2018-09-10T07:42:10.372Z,11.40
2018-09-10T07:44:39.456Z,14.77
2018-09-10T07:47:08.906Z,10.17
2018-09-10T07:49:38.224Z,11.30
2018-09-10T07:52:07.529Z,11.90
2018-09-10T07:54:36.866Z,12.17
2018-09-10T07:57:06.224Z,7.83
2018-09-10T07:59:35.086Z,7.37
2018-09-10T08:02:04.271Z,11.43
2018-09-10T08:04:33.401Z,10.97
2018-09-10T08:07:02.611Z,8.23
2018-09-10T08:09:31.584Z,8.10
2018-09-10T08:12:00.799Z,8.77
2018-09-10T08:14:30.070Z,11.17
2018-09-10T08:16:59.296Z,9.60
2018-09-10T08:19:28.253Z,8.47
2018-09-10T08:21:57.257Z,9.17
2018-09-10T08:24:26.405Z,12.17
2018-09-10T08:26:55.871Z,7.33
2018-09-10T08:29:25.080Z,7.53
2018-09-10T08:31:54.035Z,10.23
2018-09-10T08:34:23.031Z,11.50
2018-09-10T08:36:52.027Z,9.23
2018-09-10T08:39:21.248Z,10.13
2018-09-10T08:41:50.258Z,11.80
2018-09-10T08:44:19.480Z,11.33
2018-09-10T08:46:48.633Z,12.50
2018-09-10T08:49:17.407Z,9.93
2018-09-10T08:51:46.269Z,7.93
2018-09-10T08:54:15.453Z,7.70
2018-09-10T08:56:44.613Z,9.80
2018-09-10T08:59:13.597Z,5.83
2018-09-10T09:01:42.709Z,8.70
2018-09-10T09:04:11.785Z,6.23
2018-09-10T09:06:40.831Z,7.90
2018-09-10T09:09:10.076Z,5.73
2018-09-10T09:11:39.207Z,6.80
2018-09-10T09:14:08.300Z,8.87
2018-09-10T09:16:37.412Z,11.10
2018-09-10T09:19:06.355Z,6.17
2018-09-10T09:21:35.193Z,7.67
2018-09-10T09:24:04.500Z,9.60
2018-09-10T09:26:33.320Z,6.43
2018-09-10T09:29:02.017Z,8.17
2018-09-10T09:31:30.862Z,11.07
2018-09-10T09:33:59.655Z,4.33
2018-09-10T09:36:33.647Z,5.87
2018-09-10T09:39:07.971Z,8.47
2018-09-10T09:41:41.881Z,8.50
2018-09-10T09:44:15.990Z,7.77
2018-09-10T09:46:44.985Z,8.93
2018-09-10T09:49:13.844Z,6.17
2018-09-10T09:51:42.576Z,6.63
2018-09-10T09:54:11.345Z,7.23
2018-09-10T09:56:40.106Z,5.20
2018-09-10T09:59:09.034Z,6.43
2018-09-10T10:01:45.185Z,5.57
2018-09-10T10:04:14.224Z,5.37
2018-09-10T10:06:43.032Z,6.07
2018-09-10T10:09:12.497Z,5.70
2018-09-10T10:11:41.474Z,7.33
2018-09-10T10:14:11.041Z,7.23
2018-09-10T10:16:39.855Z,5.77
2018-09-10T10:19:08.616Z,5.60
2018-09-10T10:21:37.549Z,6.40
2018-09-10T10:24:06.323Z,7.10
2018-09-10T10:26:35.212Z,5.43
2018-09-10T10:29:03.846Z,6.53
2018-09-10T10:31:32.440Z,7.70
2018-09-10T10:34:01.243Z,8.10
2018-09-10T10:36:30.161Z,6.47
2018-09-10T10:38:58.969Z,6.00
2018-09-10T10:41:27.700Z,4.90
2018-09-10T10:43:56.502Z,5.03
2018-09-10T10:46:25.269Z,5.93
2018-09-10T10:48:54.201Z,7.33
2018-09-10T10:51:23.008Z,6.03
2018-09-10T10:53:52.015Z,8.80
2018-09-10T10:56:21.691Z,5.87
2018-09-10T10:58:50.392Z,6.20
2018-09-10T11:01:19.268Z,7.45
2018-09-10T11:03:47.976Z,5.00
2018-09-10T11:06:16.916Z,5.80
2018-09-10T11:08:45.643Z,5.47
2018-09-10T11:11:14.643Z,6.35
2018-09-10T11:13:43.411Z,7.75
2018-09-10T11:16:12.315Z,8.25
2018-09-10T11:18:41.051Z,6.03
2018-09-10T11:21:09.982Z,8.20
2018-09-10T11:23:38.764Z,7.55
2018-09-10T11:26:07.720Z,6.62
2018-09-10T11:28:36.471Z,8.35
2018-09-10T11:31:05.369Z,7.80
2018-09-10T11:33:34.325Z,6.95
2018-09-10T11:36:03.113Z,6.00
2018-09-10T11:38:32.183Z,5.75
2018-09-10T11:41:00.902Z,7.92
2018-09-10T11:43:29.899Z,5.60
2018-09-10T11:45:58.717Z,9.05
2018-09-10T11:48:27.501Z,6.45
2018-09-10T11:50:56.245Z,6.78
2018-09-10T11:53:25.235Z,7.00
2018-09-10T11:55:53.979Z,6.58
2018-09-10T11:58:22.928Z,5.97
2018-09-10T12:00:51.703Z,6.50
2018-09-10T12:03:20.603Z,6.30
2018-09-10T12:05:49.422Z,6.67
2018-09-10T12:08:18.146Z,6.62
2018-09-10T12:10:47.063Z,7.00
2018-09-10T12:13:16.020Z,6.97
2018-09-10T12:15:44.741Z,6.03
2018-09-10T12:18:13.504Z,6.17
2018-09-10T12:20:42.266Z,5.72
2018-09-10T12:23:11.106Z,7.35
2018-09-10T12:25:39.993Z,6.20
2018-09-10T12:28:08.885Z,6.10
2018-09-10T12:30:37.828Z,7.17
2018-09-10T12:33:06.767Z,6.10
2018-09-10T12:35:35.907Z,7.45
2018-09-10T12:38:04.916Z,8.55
2018-09-10T12:40:33.864Z,9.88
2018-09-10T12:43:02.660Z,6.00
2018-09-10T12:45:31.425Z,6.85
2018-09-10T12:48:00.171Z,7.15
2018-09-10T12:50:29.307Z,6.87
2018-09-10T12:52:58.172Z,5.83
2018-09-10T12:55:26.897Z,7.80
2018-09-10T12:57:55.612Z,6.87
2018-09-10T13:00:24.474Z,6.47
2018-09-10T13:02:53.071Z,11.43
2018-09-10T13:05:28.891Z,7.63
2018-09-10T13:07:57.733Z,9.63
2018-09-10T13:10:26.508Z,8.93
2018-09-10T13:12:55.019Z,7.27
2018-09-10T13:15:23.767Z,6.87
2018-09-10T13:17:52.728Z,6.70
2018-09-10T13:20:21.474Z,8.83
2018-09-10T13:22:50.311Z,7.90
2018-09-10T13:25:19.021Z,6.97
2018-09-10T13:27:47.673Z,7.53
2018-09-10T13:30:16.567Z,6.53
2018-09-10T13:32:45.420Z,8.60
2018-09-10T13:35:14.397Z,7.33
2018-09-10T13:37:43.083Z,7.53
2018-09-10T13:40:11.748Z,7.53
2018-09-10T13:42:40.529Z,6.90
2018-09-10T13:45:09.277Z,7.07
2018-09-10T13:47:38.107Z,7.27
2018-09-10T13:50:06.772Z,8.03
2018-09-10T13:52:35.831Z,8.53
2018-09-10T13:55:04.880Z,7.47
2018-09-10T13:57:33.787Z,7.70
2018-09-10T14:00:02.948Z,9.30
2018-09-10T14:02:31.802Z,9.77
2018-09-10T14:05:00.821Z,9.37
2018-09-10T14:07:29.612Z,7.60
2018-09-10T14:09:58.533Z,8.20
2018-09-10T14:12:27.391Z,7.40
2018-09-10T14:14:56.329Z,7.67
2018-09-10T14:17:25.377Z,8.90
2018-09-10T14:19:54.239Z,6.97
2018-09-10T14:22:23.080Z,8.80
2018-09-10T14:24:51.946Z,9.33
2018-09-10T14:27:20.814Z,7.70
2018-09-10T14:29:49.724Z,7.50
2018-09-10T14:32:18.409Z,8.60
2018-09-10T14:34:47.206Z,10.30
2018-09-10T14:37:16.294Z,9.43
2018-09-10T14:39:45.142Z,7.67
2018-09-10T14:42:14.077Z,7.90
2018-09-10T14:44:43.681Z,13.23
2018-09-10T14:47:12.640Z,8.13
2018-09-10T14:49:41.667Z,8.33
2018-09-10T14:52:10.305Z,8.47
2018-09-10T14:54:39.154Z,9.40
2018-09-10T14:57:07.979Z,11.60
2018-09-10T14:59:39.787Z,9.87
2018-09-10T15:02:08.271Z,9.40
2018-09-10T15:04:37.263Z,10.10
2018-09-10T15:07:06.304Z,12.30
2018-09-10T15:09:34.968Z,10.60
2018-09-10T15:12:03.934Z,8.80
2018-09-10T15:14:32.742Z,8.73
2018-09-10T15:17:01.431Z,9.40
2018-09-10T15:19:30.307Z,13.10
2018-09-10T15:21:59.102Z,8.40
2018-09-10T15:24:27.984Z,8.60
2018-09-10T15:26:56.865Z,13.23
2018-09-10T15:29:32.205Z,11.97
2018-09-10T15:32:01.065Z,10.23
2018-09-10T15:34:30.047Z,8.20
2018-09-10T15:36:58.800Z,8.90
2018-09-10T15:39:27.304Z,8.00
2018-09-10T15:41:56.248Z,9.47
2018-09-10T15:44:25.054Z,8.57
2018-09-10T15:46:53.565Z,9.00
2018-09-10T15:49:22.251Z,10.57
2018-09-10T15:51:50.683Z,8.73
2018-09-10T15:54:19.118Z,10.03
2018-09-10T15:56:47.701Z,13.57
2018-09-10T15:59:16.347Z,8.80
2018-09-10T16:01:44.819Z,10.77
2018-09-10T16:04:13.293Z,10.67
2018-09-10T16:06:41.799Z,9.20
2018-09-10T16:09:10.257Z,10.33
2018-09-10T16:11:38.837Z,9.40
2018-09-10T16:14:07.287Z,9.37
2018-09-10T16:42:21.243Z,10.20
2018-09-10T16:44:49.780Z,9.80
2018-09-10T16:47:18.219Z,11.90
2018-09-10T16:49:46.777Z,11.63
2018-09-10T16:52:15.653Z,12.13
2018-09-10T16:54:44.459Z,11.13
2018-09-10T16:57:12.900Z,10.77
2018-09-10T16:59:41.347Z,11.33
2018-09-10T17:02:09.834Z,11.80
2018-09-10T17:04:38.473Z,11.63
2018-09-10T17:07:07.076Z,10.47
2018-09-10T17:09:35.563Z,11.33
2018-09-10T17:12:04.020Z,11.10
2018-09-10T17:14:35.154Z,11.40
2018-09-10T17:17:03.940Z,11.23
2018-09-10T17:19:32.631Z,18.60
2018-09-10T17:22:01.179Z,11.30
2018-09-10T17:24:29.638Z,11.30
2018-09-10T17:26:58.080Z,12.63
2018-09-10T17:29:26.515Z,11.33
2018-09-10T17:31:55.039Z,13.43
2018-09-10T17:34:23.662Z,13.47
2018-09-10T17:36:52.211Z,11.70
2018-09-10T17:39:23.791Z,13.00
2018-09-10T17:41:52.248Z,12.83
2018-09-10T17:44:20.706Z,12.00
2018-09-10T17:46:49.470Z,11.60
2018-09-10T17:49:17.928Z,14.43
2018-09-10T17:51:46.707Z,12.30
2018-09-10T17:54:15.152Z,12.37
2018-09-10T17:56:43.640Z,17.43
2018-09-10T17:59:12.308Z,12.83
2018-09-10T18:01:40.900Z,14.00
2018-09-10T18:04:09.375Z,12.20
2018-09-10T18:06:37.853Z,10.87
2018-09-10T18:09:09.280Z,10.53
2018-09-10T18:11:37.788Z,10.70
2018-09-10T18:14:06.260Z,12.43
2018-09-10T18:16:34.852Z,10.20
2018-09-10T18:19:03.291Z,12.37
2018-09-10T18:21:32.792Z,12.60
2018-09-10T18:24:01.310Z,13.37
2018-09-10T18:26:29.957Z,11.50
2018-09-10T18:28:58.392Z,10.07
2018-09-10T18:31:26.880Z,10.60
2018-09-10T18:33:55.379Z,14.83
2018-09-10T18:36:23.866Z,10.13
2018-09-10T18:38:52.307Z,10.83
2018-09-10T18:41:20.857Z,10.50
2018-09-10T18:43:49.360Z,13.43
2018-09-10T18:46:18.147Z,15.47
2018-09-10T18:48:46.859Z,9.83
2018-09-10T18:51:15.425Z,12.27
2018-09-10T18:53:43.895Z,13.50
2018-09-10T18:56:12.714Z,11.53
2018-09-10T18:58:41.682Z,12.50
2018-09-10T19:01:10.671Z,12.50
2018-09-10T19:03:39.390Z,11.77
2018-09-10T19:06:08.147Z,14.90
2018-09-10T19:08:37.048Z,13.87
2018-09-10T19:11:05.513Z,11.53
2018-09-10T19:13:34.201Z,10.70
2018-09-10T19:16:02.985Z,13.57
2018-09-10T19:18:37.761Z,16.50
2018-09-10T19:21:07.100Z,10.50
2018-09-10T19:23:36.439Z,49.63
2018-09-10T19:26:05.818Z,27.40
2018-09-10T19:28:34.920Z,20.40
2018-09-10T19:31:03.804Z,12.43
2018-09-10T19:33:32.508Z,12.30
2018-09-10T19:36:01.060Z,13.07
2018-09-10T19:38:29.511Z,11.20
2018-09-10T19:40:58.236Z,12.77
2018-09-10T19:43:27.145Z,12.60
2018-09-10T19:45:55.975Z,12.63
2018-09-10T19:48:24.696Z,13.90
2018-09-10T19:50:53.622Z,12.20
2018-09-10T19:53:22.512Z,10.10
2018-09-10T19:55:51.165Z,13.43
2018-09-10T19:58:20.262Z,13.00
2018-09-10T20:00:49.051Z,16.73
2018-09-10T20:03:17.844Z,13.53
2018-09-10T20:05:47.547Z,15.33
2018-09-10T20:08:16.360Z,18.48
2018-09-10T20:10:44.990Z,17.20
2018-09-10T20:13:13.418Z,13.53
2018-09-10T20:15:41.880Z,13.33
2018-09-10T20:18:10.402Z,16.03
2018-09-10T20:20:38.800Z,17.80
2018-09-10T20:23:07.281Z,18.50
2018-09-10T20:25:35.773Z,23.37
2018-09-10T20:28:04.596Z,15.00
2018-09-10T20:30:33.081Z,15.17
2018-09-10T20:33:01.614Z,16.25
2018-09-10T20:35:30.030Z,16.83
2018-09-10T20:37:58.544Z,17.63
2018-09-10T20:40:27.028Z,14.77
2018-09-10T20:42:55.502Z,16.27
2018-09-10T20:45:24.028Z,14.90
2018-09-10T20:47:52.504Z,13.97
2018-09-10T20:50:21.232Z,17.60
2018-09-10T20:52:49.808Z,19.27
2018-09-10T20:55:18.744Z,16.67
2018-09-10T20:57:47.184Z,12.77
2018-09-10T21:00:16.457Z,16.27
2018-09-10T21:02:45.003Z,19.13
2018-09-10T21:05:13.504Z,17.77
2018-09-10T21:07:42.151Z,15.33
2018-09-10T21:10:10.614Z,19.97
2018-09-10T21:12:39.147Z,16.27
2018-09-10T21:15:07.848Z,14.80
2018-09-10T21:17:36.312Z,15.07
2018-09-10T21:20:04.832Z,14.33
2018-09-10T21:22:33.242Z,18.47
2018-09-10T21:25:01.790Z,17.67
2018-09-10T21:27:30.311Z,15.43
2018-09-10T21:29:58.804Z,15.03
2018-09-10T21:32:27.219Z,17.33
2018-09-10T21:34:55.727Z,13.77
2018-09-10T21:37:24.157Z,14.53
2018-09-10T21:39:52.645Z,16.43
2018-09-10T21:42:21.156Z,13.20
2018-09-10T21:44:49.579Z,16.23
2018-09-10T21:47:18.118Z,13.37
2018-09-10T21:49:46.629Z,14.60
2018-09-10T21:52:15.109Z,15.67
2018-09-10T21:54:43.810Z,12.57
2018-09-10T21:57:12.309Z,16.93
2018-09-10T21:59:41.413Z,15.00
2018-09-10T22:02:10.209Z,25.90
2018-09-10T22:04:38.816Z,30.73
2018-09-10T22:07:07.468Z,18.37
2018-09-10T22:09:36.163Z,18.50
2018-09-10T22:12:04.848Z,14.00
2018-09-10T22:14:34.144Z,15.53
2018-09-10T22:17:03.108Z,12.33
2018-09-10T22:19:31.803Z,15.53
2018-09-10T22:22:00.391Z,14.10
2018-09-10T22:24:29.117Z,17.17
2018-09-10T22:26:57.729Z,17.37
2018-09-10T22:29:26.513Z,13.13
2018-09-10T22:31:55.100Z,14.00
2018-09-10T22:34:23.693Z,16.33
2018-09-10T22:36:52.319Z,16.50
2018-09-10T22:39:20.987Z,13.77
2018-09-10T22:41:49.610Z,13.70
2018-09-10T22:44:18.234Z,14.87
2018-09-10T22:46:47.016Z,17.23
2018-09-10T22:49:15.595Z,18.77
2018-09-10T22:51:44.209Z,16.37
2018-09-10T22:54:12.793Z,13.67
2018-09-10T22:56:41.349Z,14.67
2018-09-10T22:59:16.779Z,12.43
2018-09-10T23:01:45.814Z,13.10
2018-09-10T23:04:14.413Z,12.53
2018-09-10T23:06:42.979Z,12.20
2018-09-10T23:09:11.542Z,12.30
2018-09-10T23:11:40.249Z,11.70
2018-09-10T23:14:09.010Z,11.80
2018-09-10T23:16:37.643Z,12.10
2018-09-10T23:19:06.390Z,15.00
2018-09-10T23:21:35.086Z,11.80
2018-09-10T23:24:04.146Z,10.37
2018-09-10T23:26:32.840Z,12.87
2018-09-10T23:29:01.436Z,9.73
2018-09-10T23:31:29.975Z,11.60
2018-09-10T23:33:58.665Z,10.83
2018-09-10T23:36:27.270Z,11.10
2018-09-10T23:38:56.085Z,10.60
2018-09-10T23:41:24.639Z,11.10
2018-09-10T23:43:53.312Z,8.77
2018-09-10T23:46:22.094Z,9.73
2018-09-10T23:48:51.003Z,10.83
2018-09-10T23:51:19.895Z,9.63
2018-09-10T23:53:48.657Z,10.50
2018-09-10T23:56:17.472Z,10.23
2018-09-10T23:58:46.351Z,10.67
